sensor_id;sensor_type;location;lat;lon;timestamp;temperature;humidity
47336;DHT22;33068;51.990;5.926;2022-07-29T00:00:19;16.90;95.90
47336;DHT22;33068;51.990;5.926;2022-07-29T00:02:46;16.80;96.40
47336;DHT22;33068;51.990;5.926;2022-07-29T00:05:13;16.80;96.20
47336;DHT22;33068;51.990;5.926;2022-07-29T00:07:42;16.70;96.40
47336;DHT22;33068;51.990;5.926;2022-07-29T00:10:09;16.80;96.30
47336;DHT22;33068;51.990;5.926;2022-07-29T00:12:36;16.80;96.40
47336;DHT22;33068;51.990;5.926;2022-07-29T00:15:04;16.80;96.30
47336;DHT22;33068;51.990;5.926;2022-07-29T00:17:34;16.80;96.40
47336;DHT22;33068;51.990;5.926;2022-07-29T00:20:01;16.70;96.50
47336;DHT22;33068;51.990;5.926;2022-07-29T00:22:29;16.70;96.80
47336;DHT22;33068;51.990;5.926;2022-07-29T00:24:56;16.70;96.70
47336;DHT22;33068;51.990;5.926;2022-07-29T00:27:23;16.80;96.70
47336;DHT22;33068;51.990;5.926;2022-07-29T00:29:51;16.70;96.80
47336;DHT22;33068;51.990;5.926;2022-07-29T00:32:18;16.70;96.90
47336;DHT22;33068;51.990;5.926;2022-07-29T00:34:47;16.70;96.90
47336;DHT22;33068;51.990;5.926;2022-07-29T00:37:34;16.70;97.10
47336;DHT22;33068;51.990;5.926;2022-07-29T00:40:01;16.70;97.10
47336;DHT22;33068;51.990;5.926;2022-07-29T00:42:28;16.60;97.10
47336;DHT22;33068;51.990;5.926;2022-07-29T00:44:55;16.60;97.20
47336;DHT22;33068;51.990;5.926;2022-07-29T00:47:23;16.60;97.30
47336;DHT22;33068;51.990;5.926;2022-07-29T00:49:51;16.70;97.20
47336;DHT22;33068;51.990;5.926;2022-07-29T00:52:19;16.60;97.40
47336;DHT22;33068;51.990;5.926;2022-07-29T00:54:47;16.50;97.60
47336;DHT22;33068;51.990;5.926;2022-07-29T00:57:14;16.60;97.70
47336;DHT22;33068;51.990;5.926;2022-07-29T00:59:42;16.50;97.90
47336;DHT22;33068;51.990;5.926;2022-07-29T01:02:12;16.50;97.90
47336;DHT22;33068;51.990;5.926;2022-07-29T01:04:39;16.50;97.90
47336;DHT22;33068;51.990;5.926;2022-07-29T01:07:10;16.50;98.00
47336;DHT22;33068;51.990;5.926;2022-07-29T01:09:38;16.50;98.00
47336;DHT22;33068;51.990;5.926;2022-07-29T01:12:06;16.50;98.20
47336;DHT22;33068;51.990;5.926;2022-07-29T01:14:34;16.40;98.20
47336;DHT22;33068;51.990;5.926;2022-07-29T01:17:09;16.50;98.10
47336;DHT22;33068;51.990;5.926;2022-07-29T01:19:49;16.50;98.00
47336;DHT22;33068;51.990;5.926;2022-07-29T01:22:37;16.70;98.40
47336;DHT22;33068;51.990;5.926;2022-07-29T01:25:12;16.70;98.30
47336;DHT22;33068;51.990;5.926;2022-07-29T01:27:51;16.50;98.30
47336;DHT22;33068;51.990;5.926;2022-07-29T01:30:27;16.40;98.40
47336;DHT22;33068;51.990;5.926;2022-07-29T01:33:01;16.50;98.30
47336;DHT22;33068;51.990;5.926;2022-07-29T01:35:35;16.50;98.30
47336;DHT22;33068;51.990;5.926;2022-07-29T01:38:09;16.50;98.40
47336;DHT22;33068;51.990;5.926;2022-07-29T01:40:44;16.50;98.40
47336;DHT22;33068;51.990;5.926;2022-07-29T01:43:15;16.40;98.50
47336;DHT22;33068;51.990;5.926;2022-07-29T01:45:47;16.40;98.70
47336;DHT22;33068;51.990;5.926;2022-07-29T01:48:20;16.40;98.50
47336;DHT22;33068;51.990;5.926;2022-07-29T01:50:50;16.40;98.80
47336;DHT22;33068;51.990;5.926;2022-07-29T01:53:24;16.40;98.80
47336;DHT22;33068;51.990;5.926;2022-07-29T01:55:53;16.30;98.80
47336;DHT22;33068;51.990;5.926;2022-07-29T01:58:22;16.30;98.80
47336;DHT22;33068;51.990;5.926;2022-07-29T02:00:51;16.30;98.80
47336;DHT22;33068;51.990;5.926;2022-07-29T02:03:19;16.30;98.80
47336;DHT22;33068;51.990;5.926;2022-07-29T02:05:48;16.20;99.00
47336;DHT22;33068;51.990;5.926;2022-07-29T02:08:18;16.20;98.90
47336;DHT22;33068;51.990;5.926;2022-07-29T02:10:48;16.20;98.90
47336;DHT22;33068;51.990;5.926;2022-07-29T02:13:18;16.20;99.20
47336;DHT22;33068;51.990;5.926;2022-07-29T02:15:48;16.20;99.50
47336;DHT22;33068;51.990;5.926;2022-07-29T02:18:18;16.10;99.60
47336;DHT22;33068;51.990;5.926;2022-07-29T02:20:48;16.10;99.80
47336;DHT22;33068;51.990;5.926;2022-07-29T02:23:18;16.10;99.50
47336;DHT22;33068;51.990;5.926;2022-07-29T02:25:53;16.10;99.90
47336;DHT22;33068;51.990;5.926;2022-07-29T02:28:24;16.00;99.90
47336;DHT22;33068;51.990;5.926;2022-07-29T02:30:53;15.90;99.90
47336;DHT22;33068;51.990;5.926;2022-07-29T02:33:23;15.90;99.90
47336;DHT22;33068;51.990;5.926;2022-07-29T02:35:52;15.80;99.90
47336;DHT22;33068;51.990;5.926;2022-07-29T02:38:21;15.80;99.90
47336;DHT22;33068;51.990;5.926;2022-07-29T02:41:10;15.80;99.90
47336;DHT22;33068;51.990;5.926;2022-07-29T02:43:38;15.80;99.90
47336;DHT22;33068;51.990;5.926;2022-07-29T02:46:10;15.80;99.90
47336;DHT22;33068;51.990;5.926;2022-07-29T02:48:46;15.80;99.90
47336;DHT22;33068;51.990;5.926;2022-07-29T02:51:19;15.70;99.90
47336;DHT22;33068;51.990;5.926;2022-07-29T02:53:53;15.70;99.90
47336;DHT22;33068;51.990;5.926;2022-07-29T02:56:25;15.70;99.90
47336;DHT22;33068;51.990;5.926;2022-07-29T02:58:56;15.60;99.90
47336;DHT22;33068;51.990;5.926;2022-07-29T03:01:25;15.60;99.90
47336;DHT22;33068;51.990;5.926;2022-07-29T03:03:56;15.60;99.90
47336;DHT22;33068;51.990;5.926;2022-07-29T03:06:25;15.60;99.90
47336;DHT22;33068;51.990;5.926;2022-07-29T03:08:54;15.60;99.90
47336;DHT22;33068;51.990;5.926;2022-07-29T03:11:22;15.50;99.90
47336;DHT22;33068;51.990;5.926;2022-07-29T03:13:50;15.50;99.90
47336;DHT22;33068;51.990;5.926;2022-07-29T03:16:18;15.50;99.90
47336;DHT22;33068;51.990;5.926;2022-07-29T03:18:46;15.50;99.90
47336;DHT22;33068;51.990;5.926;2022-07-29T03:21:15;15.50;99.90
47336;DHT22;33068;51.990;5.926;2022-07-29T03:23:44;15.40;99.90
47336;DHT22;33068;51.990;5.926;2022-07-29T03:26:12;15.20;99.90
47336;DHT22;33068;51.990;5.926;2022-07-29T03:28:39;15.10;99.90
47336;DHT22;33068;51.990;5.926;2022-07-29T03:31:07;15.00;99.90
47336;DHT22;33068;51.990;5.926;2022-07-29T03:33:34;15.00;99.90
47336;DHT22;33068;51.990;5.926;2022-07-29T03:36:01;14.90;99.90
47336;DHT22;33068;51.990;5.926;2022-07-29T03:38:30;14.90;99.90
47336;DHT22;33068;51.990;5.926;2022-07-29T03:41:03;14.80;99.90
47336;DHT22;33068;51.990;5.926;2022-07-29T03:43:35;14.80;99.90
47336;DHT22;33068;51.990;5.926;2022-07-29T03:46:04;14.70;99.90
47336;DHT22;33068;51.990;5.926;2022-07-29T03:48:34;14.60;99.90
47336;DHT22;33068;51.990;5.926;2022-07-29T03:51:03;14.50;99.90
47336;DHT22;33068;51.990;5.926;2022-07-29T03:53:32;14.50;99.90
47336;DHT22;33068;51.990;5.926;2022-07-29T03:56:02;14.50;99.90
47336;DHT22;33068;51.990;5.926;2022-07-29T03:58:30;14.40;99.90
47336;DHT22;33068;51.990;5.926;2022-07-29T04:00:58;14.30;99.90
47336;DHT22;33068;51.990;5.926;2022-07-29T04:03:26;14.30;99.90
47336;DHT22;33068;51.990;5.926;2022-07-29T04:06:00;14.40;99.90
47336;DHT22;33068;51.990;5.926;2022-07-29T04:08:28;14.40;99.90
47336;DHT22;33068;51.990;5.926;2022-07-29T04:10:57;14.30;99.90
47336;DHT22;33068;51.990;5.926;2022-07-29T04:13:24;14.40;99.90
47336;DHT22;33068;51.990;5.926;2022-07-29T04:15:51;14.50;99.90
47336;DHT22;33068;51.990;5.926;2022-07-29T04:18:18;14.40;99.90
47336;DHT22;33068;51.990;5.926;2022-07-29T04:20:45;14.40;99.90
47336;DHT22;33068;51.990;5.926;2022-07-29T04:23:13;14.40;99.90
47336;DHT22;33068;51.990;5.926;2022-07-29T04:25:41;14.30;99.90
47336;DHT22;33068;51.990;5.926;2022-07-29T04:28:10;14.30;99.90
47336;DHT22;33068;51.990;5.926;2022-07-29T04:30:38;14.20;99.90
47336;DHT22;33068;51.990;5.926;2022-07-29T04:33:06;14.30;99.90
47336;DHT22;33068;51.990;5.926;2022-07-29T04:35:35;14.20;99.90
47336;DHT22;33068;51.990;5.926;2022-07-29T04:38:03;14.20;99.90
47336;DHT22;33068;51.990;5.926;2022-07-29T04:40:31;14.20;99.90
47336;DHT22;33068;51.990;5.926;2022-07-29T04:42:59;14.20;99.90
47336;DHT22;33068;51.990;5.926;2022-07-29T04:45:28;14.20;99.90
47336;DHT22;33068;51.990;5.926;2022-07-29T04:47:56;14.20;99.90
47336;DHT22;33068;51.990;5.926;2022-07-29T04:50:23;14.30;99.90
47336;DHT22;33068;51.990;5.926;2022-07-29T04:52:50;14.20;99.90
47336;DHT22;33068;51.990;5.926;2022-07-29T04:55:17;14.20;99.90
47336;DHT22;33068;51.990;5.926;2022-07-29T04:57:46;14.30;99.90
47336;DHT22;33068;51.990;5.926;2022-07-29T05:00:14;14.30;99.90
47336;DHT22;33068;51.990;5.926;2022-07-29T05:02:43;14.40;99.90
47336;DHT22;33068;51.990;5.926;2022-07-29T05:05:10;14.30;99.90
47336;DHT22;33068;51.990;5.926;2022-07-29T05:07:38;14.30;99.90
47336;DHT22;33068;51.990;5.926;2022-07-29T05:10:06;14.30;99.90
47336;DHT22;33068;51.990;5.926;2022-07-29T05:12:33;14.30;99.90
47336;DHT22;33068;51.990;5.926;2022-07-29T05:15:00;14.30;99.90
47336;DHT22;33068;51.990;5.926;2022-07-29T05:17:27;14.30;99.90
47336;DHT22;33068;51.990;5.926;2022-07-29T05:19:57;14.30;99.90
47336;DHT22;33068;51.990;5.926;2022-07-29T05:22:24;14.30;99.90
47336;DHT22;33068;51.990;5.926;2022-07-29T05:24:51;14.40;99.90
47336;DHT22;33068;51.990;5.926;2022-07-29T05:27:18;14.30;99.90
47336;DHT22;33068;51.990;5.926;2022-07-29T05:29:46;14.30;99.90
47336;DHT22;33068;51.990;5.926;2022-07-29T05:32:14;14.40;99.90
47336;DHT22;33068;51.990;5.926;2022-07-29T05:34:42;14.30;99.90
47336;DHT22;33068;51.990;5.926;2022-07-29T05:37:13;14.30;99.90
47336;DHT22;33068;51.990;5.926;2022-07-29T05:39:42;14.40;99.90
47336;DHT22;33068;51.990;5.926;2022-07-29T05:42:09;14.40;99.90
47336;DHT22;33068;51.990;5.926;2022-07-29T05:44:37;14.40;99.90
47336;DHT22;33068;51.990;5.926;2022-07-29T05:47:05;14.50;99.90
47336;DHT22;33068;51.990;5.926;2022-07-29T05:49:33;14.50;99.90
47336;DHT22;33068;51.990;5.926;2022-07-29T05:52:00;14.50;99.90
47336;DHT22;33068;51.990;5.926;2022-07-29T05:54:29;14.60;99.90
47336;DHT22;33068;51.990;5.926;2022-07-29T05:56:56;14.70;99.90
47336;DHT22;33068;51.990;5.926;2022-07-29T05:59:23;14.70;99.90
47336;DHT22;33068;51.990;5.926;2022-07-29T06:01:52;14.70;99.90
47336;DHT22;33068;51.990;5.926;2022-07-29T06:04:19;14.80;99.90
47336;DHT22;33068;51.990;5.926;2022-07-29T06:06:46;14.90;99.90
47336;DHT22;33068;51.990;5.926;2022-07-29T06:09:13;14.90;99.90
47336;DHT22;33068;51.990;5.926;2022-07-29T06:11:42;14.90;99.90
47336;DHT22;33068;51.990;5.926;2022-07-29T06:14:09;14.90;99.90
47336;DHT22;33068;51.990;5.926;2022-07-29T06:16:36;15.00;99.90
47336;DHT22;33068;51.990;5.926;2022-07-29T06:19:03;15.10;99.90
47336;DHT22;33068;51.990;5.926;2022-07-29T06:21:34;15.00;99.90
47336;DHT22;33068;51.990;5.926;2022-07-29T06:24:03;15.20;99.90
47336;DHT22;33068;51.990;5.926;2022-07-29T06:26:30;15.30;99.90
47336;DHT22;33068;51.990;5.926;2022-07-29T06:29:02;15.40;99.90
47336;DHT22;33068;51.990;5.926;2022-07-29T06:31:29;15.50;99.90
47336;DHT22;33068;51.990;5.926;2022-07-29T06:33:56;15.50;99.90
47336;DHT22;33068;51.990;5.926;2022-07-29T06:36:23;15.50;99.90
47336;DHT22;33068;51.990;5.926;2022-07-29T06:38:51;15.60;99.90
47336;DHT22;33068;51.990;5.926;2022-07-29T06:41:18;15.60;99.90
47336;DHT22;33068;51.990;5.926;2022-07-29T06:43:47;15.70;99.90
47336;DHT22;33068;51.990;5.926;2022-07-29T06:46:19;16.20;99.90
47336;DHT22;33068;51.990;5.926;2022-07-29T06:48:46;16.00;99.90
47336;DHT22;33068;51.990;5.926;2022-07-29T06:51:14;16.00;99.90
47336;DHT22;33068;51.990;5.926;2022-07-29T06:53:42;16.20;99.90
47336;DHT22;33068;51.990;5.926;2022-07-29T06:56:10;16.40;99.90
47336;DHT22;33068;51.990;5.926;2022-07-29T06:58:39;16.60;99.90
47336;DHT22;33068;51.990;5.926;2022-07-29T07:01:06;16.80;99.90
47336;DHT22;33068;51.990;5.926;2022-07-29T07:03:35;16.90;99.90
47336;DHT22;33068;51.990;5.926;2022-07-29T07:06:03;17.00;99.90
47336;DHT22;33068;51.990;5.926;2022-07-29T07:08:30;17.10;99.90
47336;DHT22;33068;51.990;5.926;2022-07-29T07:10:57;17.10;99.90
47336;DHT22;33068;51.990;5.926;2022-07-29T07:13:25;17.10;99.90
47336;DHT22;33068;51.990;5.926;2022-07-29T07:15:53;17.20;99.90
47336;DHT22;33068;51.990;5.926;2022-07-29T07:18:21;17.20;99.90
47336;DHT22;33068;51.990;5.926;2022-07-29T07:20:49;17.30;99.90
47336;DHT22;33068;51.990;5.926;2022-07-29T07:23:17;17.30;99.90
47336;DHT22;33068;51.990;5.926;2022-07-29T07:25:44;17.30;99.90
47336;DHT22;33068;51.990;5.926;2022-07-29T07:28:19;17.30;99.90
47336;DHT22;33068;51.990;5.926;2022-07-29T07:30:46;17.30;99.90
47336;DHT22;33068;51.990;5.926;2022-07-29T07:33:14;17.30;99.90
47336;DHT22;33068;51.990;5.926;2022-07-29T07:35:41;17.30;99.90
47336;DHT22;33068;51.990;5.926;2022-07-29T07:38:11;17.30;99.90
47336;DHT22;33068;51.990;5.926;2022-07-29T07:40:39;17.30;99.90
47336;DHT22;33068;51.990;5.926;2022-07-29T07:43:06;17.30;99.90
47336;DHT22;33068;51.990;5.926;2022-07-29T07:45:50;17.30;99.90
47336;DHT22;33068;51.990;5.926;2022-07-29T07:48:17;17.30;99.90
47336;DHT22;33068;51.990;5.926;2022-07-29T07:50:44;17.30;99.90
47336;DHT22;33068;51.990;5.926;2022-07-29T07:53:13;17.30;99.90
47336;DHT22;33068;51.990;5.926;2022-07-29T07:55:41;17.40;99.90
47336;DHT22;33068;51.990;5.926;2022-07-29T07:58:09;17.40;99.90
47336;DHT22;33068;51.990;5.926;2022-07-29T08:00:36;17.50;99.90
47336;DHT22;33068;51.990;5.926;2022-07-29T08:03:04;17.50;99.90
47336;DHT22;33068;51.990;5.926;2022-07-29T08:05:31;17.10;99.90
47336;DHT22;33068;51.990;5.926;2022-07-29T08:07:58;17.60;99.90
47336;DHT22;33068;51.990;5.926;2022-07-29T08:10:27;17.60;99.90
47336;DHT22;33068;51.990;5.926;2022-07-29T08:13:12;17.70;99.90
47336;DHT22;33068;51.990;5.926;2022-07-29T08:15:39;17.70;99.90
47336;DHT22;33068;51.990;5.926;2022-07-29T08:18:07;17.70;99.90
47336;DHT22;33068;51.990;5.926;2022-07-29T08:20:35;17.80;99.90
47336;DHT22;33068;51.990;5.926;2022-07-29T08:23:04;17.90;99.90
47336;DHT22;33068;51.990;5.926;2022-07-29T08:25:33;18.10;99.90
47336;DHT22;33068;51.990;5.926;2022-07-29T08:28:01;18.20;99.90
47336;DHT22;33068;51.990;5.926;2022-07-29T08:30:28;18.30;99.90
47336;DHT22;33068;51.990;5.926;2022-07-29T08:32:55;18.40;99.90
47336;DHT22;33068;51.990;5.926;2022-07-29T08:35:23;18.30;99.90
47336;DHT22;33068;51.990;5.926;2022-07-29T08:37:51;18.50;99.90
47336;DHT22;33068;51.990;5.926;2022-07-29T08:40:19;18.50;99.90
47336;DHT22;33068;51.990;5.926;2022-07-29T08:42:49;18.50;99.90
47336;DHT22;33068;51.990;5.926;2022-07-29T08:45:16;18.50;99.90
47336;DHT22;33068;51.990;5.926;2022-07-29T08:47:44;18.50;99.90
47336;DHT22;33068;51.990;5.926;2022-07-29T08:50:12;18.50;99.90
47336;DHT22;33068;51.990;5.926;2022-07-29T08:52:40;18.50;99.90
47336;DHT22;33068;51.990;5.926;2022-07-29T08:55:09;18.50;99.90
47336;DHT22;33068;51.990;5.926;2022-07-29T08:57:40;18.50;99.90
47336;DHT22;33068;51.990;5.926;2022-07-29T09:00:09;18.60;99.90
47336;DHT22;33068;51.990;5.926;2022-07-29T09:02:39;18.70;99.90
47336;DHT22;33068;51.990;5.926;2022-07-29T09:05:07;18.70;99.90
47336;DHT22;33068;51.990;5.926;2022-07-29T09:07:35;18.70;99.90
47336;DHT22;33068;51.990;5.926;2022-07-29T09:10:05;18.70;99.90
47336;DHT22;33068;51.990;5.926;2022-07-29T09:12:33;18.80;99.90
47336;DHT22;33068;51.990;5.926;2022-07-29T09:18:08;18.80;99.90
47336;DHT22;33068;51.990;5.926;2022-07-29T09:20:35;18.70;99.90
47336;DHT22;33068;51.990;5.926;2022-07-29T09:23:19;18.70;99.90
47336;DHT22;33068;51.990;5.926;2022-07-29T09:25:47;18.60;99.90
47336;DHT22;33068;51.990;5.926;2022-07-29T09:28:17;18.60;99.90
47336;DHT22;33068;51.990;5.926;2022-07-29T09:30:50;18.50;99.90
47336;DHT22;33068;51.990;5.926;2022-07-29T09:33:20;18.50;99.90
47336;DHT22;33068;51.990;5.926;2022-07-29T09:35:59;18.50;99.90
47336;DHT22;33068;51.990;5.926;2022-07-29T09:38:26;18.50;99.90
47336;DHT22;33068;51.990;5.926;2022-07-29T09:40:56;18.60;99.90
47336;DHT22;33068;51.990;5.926;2022-07-29T09:43:24;18.50;99.90
47336;DHT22;33068;51.990;5.926;2022-07-29T09:45:51;18.60;99.90
47336;DHT22;33068;51.990;5.926;2022-07-29T09:48:22;18.60;99.90
47336;DHT22;33068;51.990;5.926;2022-07-29T09:50:54;18.60;99.90
47336;DHT22;33068;51.990;5.926;2022-07-29T09:53:39;18.60;99.90
47336;DHT22;33068;51.990;5.926;2022-07-29T09:56:07;18.60;99.90
47336;DHT22;33068;51.990;5.926;2022-07-29T09:58:36;18.70;99.90
47336;DHT22;33068;51.990;5.926;2022-07-29T10:01:03;18.80;99.90
47336;DHT22;33068;51.990;5.926;2022-07-29T10:03:32;18.90;99.90
47336;DHT22;33068;51.990;5.926;2022-07-29T10:06:07;19.20;99.90
47336;DHT22;33068;51.990;5.926;2022-07-29T10:08:35;19.50;99.90
47336;DHT22;33068;51.990;5.926;2022-07-29T10:11:20;19.80;99.90
47336;DHT22;33068;51.990;5.926;2022-07-29T10:13:49;20.20;99.90
47336;DHT22;33068;51.990;5.926;2022-07-29T10:16:17;20.60;99.90
47336;DHT22;33068;51.990;5.926;2022-07-29T10:18:46;21.00;99.90
47336;DHT22;33068;51.990;5.926;2022-07-29T10:21:13;21.50;99.20
47336;DHT22;33068;51.990;5.926;2022-07-29T10:23:41;22.00;97.40
47336;DHT22;33068;51.990;5.926;2022-07-29T10:26:10;22.30;96.40
47336;DHT22;33068;51.990;5.926;2022-07-29T10:28:38;22.40;96.00
47336;DHT22;33068;51.990;5.926;2022-07-29T10:31:06;22.60;96.30
47336;DHT22;33068;51.990;5.926;2022-07-29T10:33:47;22.90;94.80
47336;DHT22;33068;51.990;5.926;2022-07-29T10:36:32;23.10;94.50
47336;DHT22;33068;51.990;5.926;2022-07-29T10:39:15;23.50;94.80
47336;DHT22;33068;51.990;5.926;2022-07-29T10:42:02;23.90;93.00
47336;DHT22;33068;51.990;5.926;2022-07-29T10:44:33;24.00;92.60
47336;DHT22;33068;51.990;5.926;2022-07-29T10:47:01;24.30;91.70
47336;DHT22;33068;51.990;5.926;2022-07-29T10:49:29;24.00;92.10
47336;DHT22;33068;51.990;5.926;2022-07-29T10:52:03;23.90;91.70
47336;DHT22;33068;51.990;5.926;2022-07-29T10:54:42;23.90;92.80
47336;DHT22;33068;51.990;5.926;2022-07-29T10:57:18;24.20;92.20
47336;DHT22;33068;51.990;5.926;2022-07-29T10:59:47;24.30;92.30
47336;DHT22;33068;51.990;5.926;2022-07-29T11:02:43;24.80;91.00
47336;DHT22;33068;51.990;5.926;2022-07-29T11:05:19;24.70;90.90
47336;DHT22;33068;51.990;5.926;2022-07-29T11:08:19;25.10;91.20
47336;DHT22;33068;51.990;5.926;2022-07-29T11:10:49;25.40;91.10
47336;DHT22;33068;51.990;5.926;2022-07-29T11:13:47;25.40;90.80
47336;DHT22;33068;51.990;5.926;2022-07-29T11:16:17;25.50;89.60
47336;DHT22;33068;51.990;5.926;2022-07-29T11:19:19;25.30;90.90
47336;DHT22;33068;51.990;5.926;2022-07-29T11:21:48;25.30;89.80
47336;DHT22;33068;51.990;5.926;2022-07-29T11:24:21;25.40;91.40
47336;DHT22;33068;51.990;5.926;2022-07-29T11:27:09;25.50;89.40
47336;DHT22;33068;51.990;5.926;2022-07-29T11:29:40;25.30;90.60
47336;DHT22;33068;51.990;5.926;2022-07-29T11:32:09;25.30;90.00
47336;DHT22;33068;51.990;5.926;2022-07-29T11:34:37;25.60;89.40
47336;DHT22;33068;51.990;5.926;2022-07-29T11:37:24;25.70;87.20
47336;DHT22;33068;51.990;5.926;2022-07-29T11:40:25;25.80;87.20
47336;DHT22;33068;51.990;5.926;2022-07-29T11:42:52;26.20;86.30
47336;DHT22;33068;51.990;5.926;2022-07-29T11:45:24;26.40;86.20
47336;DHT22;33068;51.990;5.926;2022-07-29T11:47:58;26.40;84.70
47336;DHT22;33068;51.990;5.926;2022-07-29T11:50:31;26.50;85.80
47336;DHT22;33068;51.990;5.926;2022-07-29T11:53:03;26.40;84.40
47336;DHT22;33068;51.990;5.926;2022-07-29T11:55:30;26.40;85.80
47336;DHT22;33068;51.990;5.926;2022-07-29T11:58:01;26.00;83.90
47336;DHT22;33068;51.990;5.926;2022-07-29T12:00:32;26.20;86.20
47336;DHT22;33068;51.990;5.926;2022-07-29T12:03:01;26.30;83.00
47336;DHT22;33068;51.990;5.926;2022-07-29T12:05:35;26.50;84.50
47336;DHT22;33068;51.990;5.926;2022-07-29T12:08:13;27.00;84.20
47336;DHT22;33068;51.990;5.926;2022-07-29T12:10:42;27.20;83.10
47336;DHT22;33068;51.990;5.926;2022-07-29T12:13:10;27.60;82.70
47336;DHT22;33068;51.990;5.926;2022-07-29T12:15:38;27.90;80.20
47336;DHT22;33068;51.990;5.926;2022-07-29T12:18:16;27.80;79.80
47336;DHT22;33068;51.990;5.926;2022-07-29T12:20:45;28.70;79.60
47336;DHT22;33068;51.990;5.926;2022-07-29T12:23:21;28.80;78.20
47336;DHT22;33068;51.990;5.926;2022-07-29T12:25:48;29.10;77.90
47336;DHT22;33068;51.990;5.926;2022-07-29T12:28:16;29.10;76.00
47336;DHT22;33068;51.990;5.926;2022-07-29T12:30:45;29.10;75.70
47336;DHT22;33068;51.990;5.926;2022-07-29T12:33:19;28.90;76.00
47336;DHT22;33068;51.990;5.926;2022-07-29T12:35:49;29.00;76.70
47336;DHT22;33068;51.990;5.926;2022-07-29T12:38:19;29.00;76.40
47336;DHT22;33068;51.990;5.926;2022-07-29T12:40:48;28.80;76.00
47336;DHT22;33068;51.990;5.926;2022-07-29T12:43:18;28.30;78.50
47336;DHT22;33068;51.990;5.926;2022-07-29T12:45:47;28.20;77.70
47336;DHT22;33068;51.990;5.926;2022-07-29T12:48:18;28.40;76.70
47336;DHT22;33068;51.990;5.926;2022-07-29T12:51:00;28.70;76.40
47336;DHT22;33068;51.990;5.926;2022-07-29T12:53:30;28.70;76.10
47336;DHT22;33068;51.990;5.926;2022-07-29T12:55:58;28.40;76.80
47336;DHT22;33068;51.990;5.926;2022-07-29T12:58:35;28.70;76.70
47336;DHT22;33068;51.990;5.926;2022-07-29T13:01:09;29.00;74.20
47336;DHT22;33068;51.990;5.926;2022-07-29T13:03:45;29.30;76.00
47336;DHT22;33068;51.990;5.926;2022-07-29T13:06:35;29.50;74.20
47336;DHT22;33068;51.990;5.926;2022-07-29T13:09:07;29.50;75.10
47336;DHT22;33068;51.990;5.926;2022-07-29T13:11:35;29.20;75.20
47336;DHT22;33068;51.990;5.926;2022-07-29T13:14:03;29.40;75.10
47336;DHT22;33068;51.990;5.926;2022-07-29T13:16:31;29.70;74.40
47336;DHT22;33068;51.990;5.926;2022-07-29T13:19:06;30.10;72.40
47336;DHT22;33068;51.990;5.926;2022-07-29T13:21:34;29.90;72.90
47336;DHT22;33068;51.990;5.926;2022-07-29T13:24:01;30.00;71.70
47336;DHT22;33068;51.990;5.926;2022-07-29T13:26:30;30.10;70.50
47336;DHT22;33068;51.990;5.926;2022-07-29T13:28:57;29.90;71.00
47336;DHT22;33068;51.990;5.926;2022-07-29T13:31:24;29.50;73.10
47336;DHT22;33068;51.990;5.926;2022-07-29T13:33:51;29.80;70.10
47336;DHT22;33068;51.990;5.926;2022-07-29T13:36:19;30.30;70.30
47336;DHT22;33068;51.990;5.926;2022-07-29T13:38:46;30.40;69.60
47336;DHT22;33068;51.990;5.926;2022-07-29T13:41:13;30.60;69.40
47336;DHT22;33068;51.990;5.926;2022-07-29T13:43:41;30.70;69.00
47336;DHT22;33068;51.990;5.926;2022-07-29T13:46:08;30.40;68.00
47336;DHT22;33068;51.990;5.926;2022-07-29T13:48:35;30.30;70.30
47336;DHT22;33068;51.990;5.926;2022-07-29T13:51:03;30.70;69.80
47336;DHT22;33068;51.990;5.926;2022-07-29T13:53:30;30.90;68.00
47336;DHT22;33068;51.990;5.926;2022-07-29T13:55:58;31.10;69.00
47336;DHT22;33068;51.990;5.926;2022-07-29T13:58:26;31.00;69.40
47336;DHT22;33068;51.990;5.926;2022-07-29T14:00:55;30.90;69.10
47336;DHT22;33068;51.990;5.926;2022-07-29T14:03:23;30.50;68.00
47336;DHT22;33068;51.990;5.926;2022-07-29T14:05:50;30.30;68.60
47336;DHT22;33068;51.990;5.926;2022-07-29T14:08:17;30.60;68.00
47336;DHT22;33068;51.990;5.926;2022-07-29T14:10:44;30.70;67.90
47336;DHT22;33068;51.990;5.926;2022-07-29T14:13:12;30.40;67.60
47336;DHT22;33068;51.990;5.926;2022-07-29T14:15:39;29.60;69.70
47336;DHT22;33068;51.990;5.926;2022-07-29T14:18:07;29.30;70.80
47336;DHT22;33068;51.990;5.926;2022-07-29T14:20:35;29.30;70.00
47336;DHT22;33068;51.990;5.926;2022-07-29T14:23:03;29.20;71.40
47336;DHT22;33068;51.990;5.926;2022-07-29T14:25:30;29.10;71.80
47336;DHT22;33068;51.990;5.926;2022-07-29T14:27:58;28.70;71.60
47336;DHT22;33068;51.990;5.926;2022-07-29T14:30:25;28.40;71.80
47336;DHT22;33068;51.990;5.926;2022-07-29T14:32:53;28.10;73.50
47336;DHT22;33068;51.990;5.926;2022-07-29T14:35:25;28.00;72.20
47336;DHT22;33068;51.990;5.926;2022-07-29T14:37:52;27.80;72.40
47336;DHT22;33068;51.990;5.926;2022-07-29T14:40:20;27.90;73.10
47336;DHT22;33068;51.990;5.926;2022-07-29T14:42:47;28.50;72.10
47336;DHT22;33068;51.990;5.926;2022-07-29T14:45:16;29.10;71.10
47336;DHT22;33068;51.990;5.926;2022-07-29T14:47:43;29.90;70.40
47336;DHT22;33068;51.990;5.926;2022-07-29T14:50:11;30.10;68.80
47336;DHT22;33068;51.990;5.926;2022-07-29T14:52:40;30.40;68.00
47336;DHT22;33068;51.990;5.926;2022-07-29T14:55:08;30.70;67.20
47336;DHT22;33068;51.990;5.926;2022-07-29T14:57:35;31.10;67.00
47336;DHT22;33068;51.990;5.926;2022-07-29T15:00:04;31.50;67.80
47336;DHT22;33068;51.990;5.926;2022-07-29T15:02:32;31.80;67.60
47336;DHT22;33068;51.990;5.926;2022-07-29T15:04:59;31.50;67.30
47336;DHT22;33068;51.990;5.926;2022-07-29T15:07:27;31.60;65.90
47336;DHT22;33068;51.990;5.926;2022-07-29T15:09:56;31.30;66.30
47336;DHT22;33068;51.990;5.926;2022-07-29T15:12:24;31.70;67.10
47336;DHT22;33068;51.990;5.926;2022-07-29T15:14:51;31.60;67.10
47336;DHT22;33068;51.990;5.926;2022-07-29T15:17:19;31.80;67.60
47336;DHT22;33068;51.990;5.926;2022-07-29T15:19:57;32.20;67.30
47336;DHT22;33068;51.990;5.926;2022-07-29T15:22:25;32.20;66.20
47336;DHT22;33068;51.990;5.926;2022-07-29T15:24:53;31.40;66.80
47336;DHT22;33068;51.990;5.926;2022-07-29T15:27:22;30.30;68.90
47336;DHT22;33068;51.990;5.926;2022-07-29T15:29:49;29.50;70.40
47336;DHT22;33068;51.990;5.926;2022-07-29T15:32:17;28.80;70.60
47336;DHT22;33068;51.990;5.926;2022-07-29T15:34:44;28.40;73.60
47336;DHT22;33068;51.990;5.926;2022-07-29T15:37:11;27.90;73.70
47336;DHT22;33068;51.990;5.926;2022-07-29T15:39:39;27.60;73.40
47336;DHT22;33068;51.990;5.926;2022-07-29T15:42:06;27.40;72.60
47336;DHT22;33068;51.990;5.926;2022-07-29T15:44:35;27.20;74.10
47336;DHT22;33068;51.990;5.926;2022-07-29T15:47:02;27.00;72.90
47336;DHT22;33068;51.990;5.926;2022-07-29T15:49:29;26.90;74.80